Portada
METAR-TAF:

METAR-TAF

Aeropuertos :

Parma, Italia

latitud: 44-49-17N, longitud: 010-17-41E, altitud: 50 m

Observación

El informe se hizo hace 55 minutos, a las 11:50 UTC
Viento 1 kt con dirección variable
Temperatura 1°C
Humedad 100%
Presión 1012 hPa
Visibilidad: 2000 m
Cielo nuboso a una altura de 1000 ft
neblina

METAR: LIMP 021150Z VRB01KT 2000 BR BKN010 01/01 Q1012 RESN

Hora: 13:45 (12:45 UTC)

Pronóstico

El informe se hizo hace 1 hora y 45 minutos, a las 11:00 UTC
Pronóstico válido del 02 a las 12 UTC al 03 a las 12 UTC
Viento 5 kt con dirección variable
Visibilidad: 3000 m
Cielo cubierto a una altura de 1000 ft
neblina
Temporalmente
del 02 a las 12 UTC al 02 a las 18 UTC
Visibilidad: 1000 m
nieve

TAF: LIMP 021100Z 0212/0312 VRB05KT 3000 BR OVC010 TEMPO 0212/0218 1000 SN

Observaciones y pronósticos meteorológicos de más de 4000 aeropuertos (mensajes METAR y TAF).

Los puntos amarillos y rojos representan las estaciones disponibles.

Ponga el ratón en el punto deseado para ver el nombre de la estación.

Haga clic para ver las observaciones y los pronósticos meteorológicos.

Para cambiar el mapa : haga clic en los botones verdes con una cruz de color negro para hacer un zoom, en el botón verde con un guión para alejar o en las flechas verdes para mapas adyacentes.


METAR-TAF: